logo dgac
Jueves 18 de Octubre del 2018
Buscar por aerodromo o helipuerto
Ingrese nombre de aeródromo, localidad o designador OACI:
TAF: TAF SCRD 181100Z 1812/1824 00000KT CAVOK TX18/1818Z TN09/1812Z TEMPO 1812/1816 27004KT 4000 BR SCT010 BECMG 1817/1819 29008KT
TAF del 18/10/2018 a las 11:00 UTC
Período de validez: desde el 18 a las 12:00 UTC hasta el 18 a las 24:00 UTC
Visibilidad: 10 km o más,
    sin nubes bajo los 5.000 pies o bajo del MSA (Mínimo de Seguridad del Aeródromo),
    sin cumulonimbus, y sin fenómenos de tiempo significativo en el aeródromo o alrededores
Temperatura máxima: 18ºC el 18 a las 18:00 UTC
Temperatura mínima: 9ºC el 18 a las 12:00 UTC
Se espera en forma temporal entre las 12:00 UTC del 18 y las 16:00 UTC del 18:
Viento: dirección 270 grados, velocidad 4 nudos
Visibilidad: 4000 metros
Neblina
Nubes: Nubosidad parcial a 1000 pies sobre el nivel del aeródromo
Se espera un cambio entre las 17:00 UTC del 18 y las 19:00 UTC del 18, :
Viento: dirección 290 grados, velocidad 8 nudos